PWSweather.com
Personal Weather Stations
Station Observations
BREEJEDURP
'sGravenzande, WestlandNL

'sGravenzandeWestlandNL

Lat: 52.00095260000001, Lon: 4.174256600000035

Elevation: 3

Station Type: Davis Vantage Pro2 Plus

Latest ConditionsUpdated 8:10:00 PM GMT+01:01 Tuesday, Nov 12, 2019
Currently Today's Max Today's Min Today's Average
Temperature 43.0°F6.1°C 46.0°F7.8°C 39.4°F4.1°C 42.8°F6.0°C
Dew Point 40.3°F4.6°C 42.5°F5.8°C 38.1°F3.4°C 40.2°F4.6°C
Winds 10.0 mph SSW16.1 kmh SSW 11.0 mph -17.7 kmh - - 7.1 mph 11.4 kmh
Wind Gusts 15.0 mph24.1 kmh 17.0 mph27.4 kmh - -
Humidity 90% 95% 83% 90%
Pressure 29.40 in995.6 mb 29.50 in999.0 mb 29.40 in995.6 mb -
Precipitation - 0.80 in20.3 mm - -
Hour Temp Dew Point Humidity Winds Wind Gusts Pressure Precip Precip Rate Daily Precip Total
08:10 PM 43.0°F6.1°C 40.3°F4.6°C 90% 10.0 mph SSW16.1 kmh SSW 15.0 mph24.1 kmh 29.40 in995.6 mb 0.00 in0.0 mm 0.00 in0.0 mm 0.80 in20.3 mm
08:05 PM 43.0°F6.1°C 40.3°F4.6°C 90% 11.0 mph S17.7 kmh S 16.0 mph25.7 kmh 29.40 in995.6 mb 0.00 in0.0 mm 0.00 in0.0 mm 0.80 in20.3 mm
08:00 PM 43.0°F6.1°C 40.3°F4.6°C 90% 8.0 mph SSW12.9 kmh SSW 11.0 mph17.7 kmh 29.41 in995.9 mb 0.00 in0.0 mm 0.00 in0.0 mm 0.80 in20.3 mm
06:10 PM 43.5°F6.4°C 40.2°F4.6°C 88% 10.0 mph SSE16.1 kmh SSE 15.0 mph24.1 kmh 29.41 in995.9 mb 0.00 in0.0 mm 0.00 in0.0 mm 0.80 in20.3 mm
06:05 PM 43.5°F6.4°C 40.2°F4.6°C 88% 9.0 mph SSE14.5 kmh SSE 14.0 mph22.5 kmh 29.41 in995.9 mb 0.00 in0.0 mm 0.00 in0.0 mm 0.80 in20.3 mm
06:00 PM 43.7°F6.5°C 40.4°F4.7°C 88% 7.0 mph SSE11.3 kmh SSE 11.0 mph17.7 kmh 29.41 in995.9 mb 0.00 in0.0 mm 0.00 in0.0 mm 0.80 in20.3 mm
04:10 PM 44.6°F7.0°C 40.7°F4.8°C 86% 10.0 mph S16.1 kmh S 17.0 mph27.4 kmh 29.44 in997.0 mb 0.00 in0.0 mm 0.00 in0.0 mm 0.80 in20.3 mm
04:05 PM 45.0°F7.2°C 40.7°F4.8°C 85% 9.0 mph SSW14.5 kmh SSW 13.0 mph20.9 kmh 29.44 in997.0 mb 0.00 in0.0 mm 0.00 in0.0 mm 0.80 in20.3 mm
04:00 PM 45.0°F7.2°C 40.7°F4.8°C 85% 8.0 mph SSW12.9 kmh SSW 11.0 mph17.7 kmh 29.44 in997.0 mb 0.00 in0.0 mm 0.00 in0.0 mm 0.80 in20.3 mm
02:10 PM 44.4°F6.9°C 42.5°F5.8°C 93% 10.0 mph SSW16.1 kmh SSW 13.0 mph20.9 kmh 29.44 in997.0 mb 0.00 in0.0 mm 0.00 in0.0 mm 0.80 in20.3 mm
02:05 PM 44.1°F6.7°C 42.2°F5.7°C 93% 10.0 mph S16.1 kmh S 16.0 mph25.7 kmh 29.44 in997.0 mb 0.00 in0.0 mm 0.00 in0.0 mm 0.80 in20.3 mm
02:00 PM 43.9°F6.6°C 42.3°F5.7°C 94% 6.0 mph SSW9.7 kmh SSW 8.0 mph12.9 kmh 29.44 in997.0 mb 0.00 in0.0 mm 0.00 in0.0 mm 0.80 in20.3 mm
12:10 PM 39.6°F4.2°C 38.2°F3.4°C 95% 5.0 mph SE8.0 kmh SE 8.0 mph12.9 kmh 29.47 in998.0 mb 0.00 in0.0 mm 0.00 in0.0 mm 0.77 in19.6 mm
12:05 PM 39.4°F4.1°C 38.1°F3.4°C 95% 6.0 mph ESE9.7 kmh ESE 10.0 mph16.1 kmh 29.47 in998.0 mb 0.00 in0.0 mm 0.00 in0.0 mm 0.77 in19.6 mm
12:00 PM 39.4°F4.1°C 38.1°F3.4°C 95% 4.0 mph ESE6.4 kmh ESE 7.0 mph11.3 kmh 29.47 in998.0 mb 0.00 in0.0 mm 0.00 in0.0 mm 0.77 in19.6 mm
10:11 AM 40.5°F4.7°C 38.6°F3.7°C 93% 7.0 mph SSW11.3 kmh SSW 12.0 mph19.3 kmh 29.49 in998.6 mb 0.01 in0.3 mm 0.08 in2.0 mm 0.62 in15.7 mm
10:05 AM 40.5°F4.7°C 38.9°F3.8°C 94% 7.0 mph S11.3 kmh S 11.0 mph17.7 kmh 29.48 in998.3 mb 0.00 in0.0 mm 0.00 in0.0 mm 0.61 in15.5 mm
10:00 AM 40.3°F4.6°C 38.4°F3.6°C 93% 6.0 mph SW9.7 kmh SW 9.0 mph14.5 kmh 29.49 in998.6 mb 0.00 in0.0 mm 0.00 in0.0 mm 0.61 in15.5 mm
08:10 AM 40.5°F4.7°C 39.1°F3.9°C 95% 6.0 mph S9.7 kmh S 8.0 mph12.9 kmh 29.48 in998.3 mb 0.01 in0.3 mm 0.00 in0.0 mm 0.39 in9.9 mm
08:05 AM 40.3°F4.6°C 39.0°F3.9°C 95% 5.0 mph S8.0 kmh S 8.0 mph12.9 kmh 29.48 in998.3 mb 0.01 in0.3 mm 0.00 in0.0 mm 0.39 in9.9 mm
08:00 AM 40.3°F4.6°C 39.0°F3.9°C 95% 4.0 mph SSE6.4 kmh SSE 7.0 mph11.3 kmh 29.48 in998.3 mb 0.01 in0.3 mm 0.05 in1.3 mm 0.37 in9.4 mm
06:10 AM 41.2°F5.1°C 39.9°F4.4°C 95% 5.0 mph SSE8.0 kmh SSE 9.0 mph14.5 kmh 29.48 in998.3 mb 0.01 in0.3 mm 0.00 in0.0 mm 0.22 in5.6 mm
06:05 AM 41.2°F5.1°C 39.9°F4.4°C 95% 4.0 mph S6.4 kmh S 7.0 mph11.3 kmh 29.49 in998.6 mb 0.01 in0.3 mm 0.10 in2.5 mm 0.21 in5.3 mm
06:00 AM 41.2°F5.1°C 39.6°F4.2°C 94% 3.0 mph S4.8 kmh S 7.0 mph11.3 kmh 29.49 in998.6 mb 0.00 in0.0 mm 0.00 in0.0 mm 0.19 in4.8 mm
04:10 AM 42.6°F5.9°C 39.6°F4.2°C 89% 10.0 mph S16.1 kmh S 15.0 mph24.1 kmh 29.49 in998.6 mb 0.00 in0.0 mm 0.00 in0.0 mm 0.06 in1.5 mm
04:05 AM 43.0°F6.1°C 40.3°F4.6°C 90% 8.0 mph SSW12.9 kmh SSW 14.0 mph22.5 kmh 29.49 in998.6 mb 0.00 in0.0 mm 0.00 in0.0 mm 0.06 in1.5 mm
04:00 AM 43.0°F6.1°C 40.3°F4.6°C 90% 10.0 mph SSW16.1 kmh SSW 15.0 mph24.1 kmh 29.49 in998.6 mb 0.00 in0.0 mm 0.00 in0.0 mm 0.06 in1.5 mm
02:10 AM 46.0°F7.8°C 41.8°F5.4°C 85% 5.0 mph SW8.0 kmh SW 7.0 mph11.3 kmh 29.49 in998.6 mb 0.00 in0.0 mm 0.00 in0.0 mm 0.06 in1.5 mm
02:05 AM 46.0°F7.8°C 41.5°F5.3°C 84% 5.0 mph SW8.0 kmh SW 10.0 mph16.1 kmh 29.49 in998.6 mb 0.00 in0.0 mm 0.00 in0.0 mm 0.06 in1.5 mm
02:00 AM 45.9°F7.7°C 41.0°F5.0°C 83% 7.0 mph SW11.3 kmh SW 11.0 mph17.7 kmh 29.49 in998.6 mb 0.00 in0.0 mm 0.00 in0.0 mm 0.06 in1.5 mm
12:10 AM 44.6°F7.0°C 40.7°F4.8°C 86% 7.0 mph SW11.3 kmh SW 11.0 mph17.7 kmh 29.50 in999.0 mb 0.00 in0.0 mm 0.00 in0.0 mm 0.00 in0.0 mm
12:05 AM 45.3°F7.4°C 41.4°F5.2°C 86% 6.0 mph SW9.7 kmh SW 10.0 mph16.1 kmh 29.50 in999.0 mb 0.00 in0.0 mm 0.00 in0.0 mm 0.00 in0.0 mm
12:00 AM 46.0°F7.8°C 41.8°F5.4°C 85% 7.0 mph SW11.3 kmh SW 10.0 mph16.1 kmh 29.49 in998.6 mb 0.00 in0.0 mm 0.00 in0.0 mm 0.00 in0.0 mm